sensor_id;sensor_type;location;lat;lon;timestamp;pressure;altitude;pressure_sealevel;temperature;humidity
47883;BME280;37739;50.350;7.578;2023-05-22T00:01:42;99458.16;;;19.89;71.50
47883;BME280;37739;50.350;7.578;2023-05-22T00:04:09;99459.13;;;19.66;72.37
47883;BME280;37739;50.350;7.578;2023-05-22T00:06:41;99449.56;;;19.68;72.08
47883;BME280;37739;50.350;7.578;2023-05-22T00:09:06;99453.03;;;19.70;72.40
47883;BME280;37739;50.350;7.578;2023-05-22T00:11:34;99453.06;;;19.67;72.17
47883;BME280;37739;50.350;7.578;2023-05-22T00:14:00;99452.22;;;19.62;72.32
47883;BME280;37739;50.350;7.578;2023-05-22T00:16:26;99449.66;;;19.56;72.76
47883;BME280;37739;50.350;7.578;2023-05-22T00:18:53;99446.19;;;19.54;72.56
47883;BME280;37739;50.350;7.578;2023-05-22T00:21:22;99445.34;;;19.46;73.24
47883;BME280;37739;50.350;7.578;2023-05-22T00:23:53;99444.47;;;19.50;72.73
47883;BME280;37739;50.350;7.578;2023-05-22T00:26:20;99445.31;;;19.53;72.85
47883;BME280;37739;50.350;7.578;2023-05-22T00:28:49;99445.31;;;19.56;72.59
47883;BME280;37739;50.350;7.578;2023-05-22T00:31:16;99438.34;;;19.57;72.66
47883;BME280;37739;50.350;7.578;2023-05-22T00:33:42;99442.69;;;19.55;72.70
47883;BME280;37739;50.350;7.578;2023-05-22T00:36:08;99441.84;;;19.51;72.54
47883;BME280;37739;50.350;7.578;2023-05-22T00:38:34;99441.03;;;19.48;72.71
47883;BME280;37739;50.350;7.578;2023-05-22T00:41:02;99441.03;;;19.46;72.73
47883;BME280;37739;50.350;7.578;2023-05-22T00:43:30;99437.56;;;19.44;72.49
47883;BME280;37739;50.350;7.578;2023-05-22T00:45:56;99439.28;;;19.43;72.83
47883;BME280;37739;50.350;7.578;2023-05-22T00:48:24;99438.44;;;19.43;72.88
47883;BME280;37739;50.350;7.578;2023-05-22T00:50:50;99432.38;;;19.39;73.05
47883;BME280;37739;50.350;7.578;2023-05-22T00:53:19;99429.81;;;19.36;73.34
47883;BME280;37739;50.350;7.578;2023-05-22T00:55:45;99428.91;;;19.36;73.29
47883;BME280;37739;50.350;7.578;2023-05-22T00:58:14;99430.66;;;19.35;73.35
47883;BME280;37739;50.350;7.578;2023-05-22T01:00:43;99444.56;;;19.31;72.97
47883;BME280;37739;50.350;7.578;2023-05-22T01:03:09;99444.56;;;19.31;73.43
47883;BME280;37739;50.350;7.578;2023-05-22T01:05:40;99447.16;;;19.31;73.52
47883;BME280;37739;50.350;7.578;2023-05-22T01:08:07;99442.84;;;19.27;73.40
47883;BME280;37739;50.350;7.578;2023-05-22T01:10:36;99437.63;;;19.24;73.72
47883;BME280;37739;50.350;7.578;2023-05-22T01:15:44;99447.19;;;19.22;74.22
47883;BME280;37739;50.350;7.578;2023-05-22T01:18:19;99442.88;;;19.18;73.93
47883;BME280;37739;50.350;7.578;2023-05-22T01:20:57;99447.25;;;19.11;74.50
47883;BME280;37739;50.350;7.578;2023-05-22T01:26:31;99429.94;;;19.01;75.37
47883;BME280;37739;50.350;7.578;2023-05-22T01:29:49;99443.81;;;19.00;76.02
47883;BME280;37739;50.350;7.578;2023-05-22T01:32:25;99446.41;;;18.98;74.80
47883;BME280;37739;50.350;7.578;2023-05-22T01:34:55;99443.84;;;18.92;74.94
47883;BME280;37739;50.350;7.578;2023-05-22T01:37:23;99438.63;;;18.94;75.18
47883;BME280;37739;50.350;7.578;2023-05-22T01:39:50;99438.63;;;18.92;74.69
47883;BME280;37739;50.350;7.578;2023-05-22T01:42:18;99441.25;;;18.86;75.32
47883;BME280;37739;50.350;7.578;2023-05-22T01:44:43;99439.50;;;18.83;75.03
47883;BME280;37739;50.350;7.578;2023-05-22T01:47:11;99435.16;;;18.87;74.88
47883;BME280;37739;50.350;7.578;2023-05-22T01:49:36;99439.50;;;18.82;75.31
47883;BME280;37739;50.350;7.578;2023-05-22T01:57:26;99443.84;;;18.69;76.08
47883;BME280;37739;50.350;7.578;2023-05-22T02:02:24;99442.97;;;18.64;75.82
47883;BME280;37739;50.350;7.578;2023-05-22T02:04:54;99444.72;;;18.65;75.53
47883;BME280;37739;50.350;7.578;2023-05-22T02:07:23;99438.66;;;18.63;75.72
47883;BME280;37739;50.350;7.578;2023-05-22T02:09:50;99441.25;;;18.63;75.87
47883;BME280;37739;50.350;7.578;2023-05-22T02:12:16;99436.91;;;18.60;75.70
47883;BME280;37739;50.350;7.578;2023-05-22T02:14:43;99437.81;;;18.59;75.40
47883;BME280;37739;50.350;7.578;2023-05-22T02:17:11;99439.50;;;18.59;75.57
47883;BME280;37739;50.350;7.578;2023-05-22T02:19:36;99432.59;;;18.56;75.92
47883;BME280;37739;50.350;7.578;2023-05-22T02:22:05;99436.91;;;18.51;76.09
47883;BME280;37739;50.350;7.578;2023-05-22T02:24:33;99430.91;;;18.48;76.13
47883;BME280;37739;50.350;7.578;2023-05-22T02:27:00;99432.59;;;18.45;76.18
47883;BME280;37739;50.350;7.578;2023-05-22T02:29:28;99432.63;;;18.42;76.34
47883;BME280;37739;50.350;7.578;2023-05-22T02:31:56;99434.34;;;18.39;76.16
47883;BME280;37739;50.350;7.578;2023-05-22T02:34:21;99429.16;;;18.31;77.08
47883;BME280;37739;50.350;7.578;2023-05-22T02:36:47;99427.41;;;18.24;77.57
47883;BME280;37739;50.350;7.578;2023-05-22T02:39:16;99431.78;;;18.27;77.46
47883;BME280;37739;50.350;7.578;2023-05-22T02:41:41;99432.59;;;18.22;77.49
47883;BME280;37739;50.350;7.578;2023-05-22T02:44:09;99428.28;;;18.21;77.22
47883;BME280;37739;50.350;7.578;2023-05-22T02:46:34;99432.63;;;18.19;77.90
47883;BME280;37739;50.350;7.578;2023-05-22T02:48:59;99436.06;;;18.18;77.52
47883;BME280;37739;50.350;7.578;2023-05-22T02:51:29;99430.88;;;18.18;77.92
47883;BME280;37739;50.350;7.578;2023-05-22T02:53:54;99433.50;;;18.15;77.78
47883;BME280;37739;50.350;7.578;2023-05-22T02:56:20;99436.06;;;18.12;77.77
47883;BME280;37739;50.350;7.578;2023-05-22T02:58:46;99432.59;;;18.07;78.25
47883;BME280;37739;50.350;7.578;2023-05-22T03:01:11;99430.00;;;18.02;78.58
47883;BME280;37739;50.350;7.578;2023-05-22T03:03:41;99428.28;;;17.97;78.21
47883;BME280;37739;50.350;7.578;2023-05-22T03:06:07;99435.22;;;17.98;78.48
47883;BME280;37739;50.350;7.578;2023-05-22T03:08:35;99434.34;;;18.00;78.04
47883;BME280;37739;50.350;7.578;2023-05-22T03:11:05;99431.72;;;17.97;77.80
47883;BME280;37739;50.350;7.578;2023-05-22T03:13:30;99443.88;;;17.94;78.20
47883;BME280;37739;50.350;7.578;2023-05-22T03:15:56;99441.28;;;17.94;78.12
47883;BME280;37739;50.350;7.578;2023-05-22T03:18:21;99435.19;;;17.93;78.02
47883;BME280;37739;50.350;7.578;2023-05-22T03:20:46;99441.28;;;17.94;78.33
47883;BME280;37739;50.350;7.578;2023-05-22T03:23:12;99429.13;;;17.93;77.94
47883;BME280;37739;50.350;7.578;2023-05-22T03:25:37;99432.59;;;17.89;78.42
47883;BME280;37739;50.350;7.578;2023-05-22T03:28:05;99434.28;;;17.83;78.81
47883;BME280;37739;50.350;7.578;2023-05-22T03:30:31;99429.97;;;17.82;78.77
47883;BME280;37739;50.350;7.578;2023-05-22T03:32:56;99431.69;;;17.80;78.71
47883;BME280;37739;50.350;7.578;2023-05-22T03:35:21;99434.25;;;17.76;78.84
47883;BME280;37739;50.350;7.578;2023-05-22T03:37:51;99425.59;;;17.72;78.94
47883;BME280;37739;50.350;7.578;2023-05-22T03:40:16;99431.69;;;17.71;78.81
47883;BME280;37739;50.350;7.578;2023-05-22T03:42:41;99437.72;;;17.67;78.80
47883;BME280;37739;50.350;7.578;2023-05-22T03:45:07;99436.84;;;17.63;79.36
47883;BME280;37739;50.350;7.578;2023-05-22T03:47:34;99431.66;;;17.65;79.28
47883;BME280;37739;50.350;7.578;2023-05-22T03:50:00;99442.03;;;17.66;79.42
47883;BME280;37739;50.350;7.578;2023-05-22T03:52:25;99442.88;;;17.64;79.30
47883;BME280;37739;50.350;7.578;2023-05-22T03:54:50;99431.66;;;17.63;79.26
47883;BME280;37739;50.350;7.578;2023-05-22T03:57:19;99433.38;;;17.58;79.61
47883;BME280;37739;50.350;7.578;2023-05-22T03:59:45;99435.97;;;17.60;79.10
47883;BME280;37739;50.350;7.578;2023-05-22T04:02:13;99431.63;;;17.60;79.14
47883;BME280;37739;50.350;7.578;2023-05-22T04:04:43;99429.94;;;17.59;79.23
47883;BME280;37739;50.350;7.578;2023-05-22T04:07:11;99430.78;;;17.58;79.52
47883;BME280;37739;50.350;7.578;2023-05-22T04:09:38;99423.84;;;17.56;79.31
47883;BME280;37739;50.350;7.578;2023-05-22T04:12:03;99429.03;;;17.54;79.92
47883;BME280;37739;50.350;7.578;2023-05-22T04:14:31;99432.47;;;17.53;80.35
47883;BME280;37739;50.350;7.578;2023-05-22T04:16:58;99429.00;;;17.46;81.26
47883;BME280;37739;50.350;7.578;2023-05-22T04:19:27;99434.22;;;17.48;80.72
47883;BME280;37739;50.350;7.578;2023-05-22T04:21:57;99429.88;;;17.53;80.39
47883;BME280;37739;50.350;7.578;2023-05-22T04:24:22;99435.09;;;17.56;80.51
47883;BME280;37739;50.350;7.578;2023-05-22T04:26:51;99436.81;;;17.56;80.27
47883;BME280;37739;50.350;7.578;2023-05-22T04:29:19;99442.84;;;17.55;80.56
47883;BME280;37739;50.350;7.578;2023-05-22T04:31:50;99436.78;;;17.45;81.23
47883;BME280;37739;50.350;7.578;2023-05-22T04:34:18;99442.00;;;17.48;80.85
47883;BME280;37739;50.350;7.578;2023-05-22T04:36:46;99446.34;;;17.54;80.52
47883;BME280;37739;50.350;7.578;2023-05-22T04:39:12;99453.25;;;17.56;80.50
47883;BME280;37739;50.350;7.578;2023-05-22T04:41:40;99452.38;;;17.59;80.43
47883;BME280;37739;50.350;7.578;2023-05-22T04:44:06;99455.84;;;17.61;80.44
47883;BME280;37739;50.350;7.578;2023-05-22T04:46:34;99454.97;;;17.59;80.38
47883;BME280;37739;50.350;7.578;2023-05-22T04:49:00;99458.47;;;17.59;80.33
47883;BME280;37739;50.350;7.578;2023-05-22T04:51:31;99459.28;;;17.57;80.50
47883;BME280;37739;50.350;7.578;2023-05-22T04:53:57;99465.34;;;17.59;80.60
47883;BME280;37739;50.350;7.578;2023-05-22T04:56:27;99466.25;;;17.59;80.62
47883;BME280;37739;50.350;7.578;2023-05-22T04:58:54;99460.19;;;17.62;80.71
47883;BME280;37739;50.350;7.578;2023-05-22T05:01:20;99461.03;;;17.61;80.85
47883;BME280;37739;50.350;7.578;2023-05-22T05:03:45;99465.34;;;17.60;80.87
47883;BME280;37739;50.350;7.578;2023-05-22T05:06:11;99466.25;;;17.64;80.93
47883;BME280;37739;50.350;7.578;2023-05-22T05:08:39;99463.66;;;17.64;80.69
47883;BME280;37739;50.350;7.578;2023-05-22T05:11:07;99470.56;;;17.68;80.95
47883;BME280;37739;50.350;7.578;2023-05-22T05:13:32;99470.56;;;17.66;81.28
47883;BME280;37739;50.350;7.578;2023-05-22T05:15:58;99470.56;;;17.62;82.27
47883;BME280;37739;50.350;7.578;2023-05-22T05:18:23;99480.06;;;17.58;82.01
47883;BME280;37739;50.350;7.578;2023-05-22T05:20:50;99475.75;;;17.62;82.03
47883;BME280;37739;50.350;7.578;2023-05-22T05:23:15;99481.81;;;17.65;81.55
47883;BME280;37739;50.350;7.578;2023-05-22T05:25:40;99482.69;;;17.67;81.64
47883;BME280;37739;50.350;7.578;2023-05-22T05:28:06;99480.97;;;17.71;81.44
47883;BME280;37739;50.350;7.578;2023-05-22T05:30:38;99476.63;;;17.67;81.81
47883;BME280;37739;50.350;7.578;2023-05-22T05:33:06;99482.66;;;17.60;82.98
47883;BME280;37739;50.350;7.578;2023-05-22T05:35:34;99476.63;;;17.65;82.48
47883;BME280;37739;50.350;7.578;2023-05-22T05:38:02;99472.31;;;17.72;81.82
47883;BME280;37739;50.350;7.578;2023-05-22T05:40:27;99478.34;;;17.70;82.51
47883;BME280;37739;50.350;7.578;2023-05-22T05:42:53;99481.81;;;17.65;82.57
47883;BME280;37739;50.350;7.578;2023-05-22T05:45:20;99487.81;;;17.54;83.22
47883;BME280;37739;50.350;7.578;2023-05-22T05:47:48;99491.28;;;17.56;83.49
47883;BME280;37739;50.350;7.578;2023-05-22T05:50:15;99491.31;;;17.63;83.00
47883;BME280;37739;50.350;7.578;2023-05-22T05:52:45;99487.00;;;17.67;82.48
47883;BME280;37739;50.350;7.578;2023-05-22T05:55:11;99486.97;;;17.61;83.03
47883;BME280;37739;50.350;7.578;2023-05-22T05:57:38;99492.19;;;17.64;83.30
47883;BME280;37739;50.350;7.578;2023-05-22T06:00:07;99492.19;;;17.67;83.33
47883;BME280;37739;50.350;7.578;2023-05-22T06:02:35;99490.50;;;17.71;83.06
47883;BME280;37739;50.350;7.578;2023-05-22T06:05:04;99493.06;;;17.71;83.54
47883;BME280;37739;50.350;7.578;2023-05-22T06:07:30;99503.44;;;17.72;84.14
47883;BME280;37739;50.350;7.578;2023-05-22T06:09:58;99495.66;;;17.72;83.94
47883;BME280;37739;50.350;7.578;2023-05-22T06:12:26;99507.78;;;17.73;83.61
47883;BME280;37739;50.350;7.578;2023-05-22T06:14:54;99505.16;;;17.72;84.00
47883;BME280;37739;50.350;7.578;2023-05-22T06:17:19;99507.75;;;17.67;84.15
47883;BME280;37739;50.350;7.578;2023-05-22T06:19:47;99511.22;;;17.74;83.83
47883;BME280;37739;50.350;7.578;2023-05-22T06:22:14;99517.34;;;17.90;83.22
47883;BME280;37739;50.350;7.578;2023-05-22T06:24:40;99516.50;;;17.89;82.86
47883;BME280;37739;50.350;7.578;2023-05-22T06:27:10;99522.50;;;17.83;83.38
47883;BME280;37739;50.350;7.578;2023-05-22T06:29:37;99516.44;;;17.78;83.93
47883;BME280;37739;50.350;7.578;2023-05-22T06:32:05;99524.25;;;17.83;83.56
47883;BME280;37739;50.350;7.578;2023-05-22T06:34:30;99517.38;;;17.94;82.79
47883;BME280;37739;50.350;7.578;2023-05-22T06:36:56;99513.03;;;17.92;83.33
47883;BME280;37739;50.350;7.578;2023-05-22T06:39:21;99515.63;;;17.92;83.61
47883;BME280;37739;50.350;7.578;2023-05-22T06:41:49;99519.16;;;18.08;83.15
47883;BME280;37739;50.350;7.578;2023-05-22T06:44:16;99520.03;;;18.10;82.88
47883;BME280;37739;50.350;7.578;2023-05-22T06:46:42;99521.72;;;17.97;83.00
47883;BME280;37739;50.350;7.578;2023-05-22T06:49:07;99520.88;;;18.04;83.44
47883;BME280;37739;50.350;7.578;2023-05-22T06:51:35;99533.03;;;18.25;82.13
47883;BME280;37739;50.350;7.578;2023-05-22T06:54:00;99526.97;;;18.37;82.02
47883;BME280;37739;50.350;7.578;2023-05-22T06:56:27;99527.84;;;18.37;81.91
47883;BME280;37739;50.350;7.578;2023-05-22T06:58:55;99526.09;;;18.45;81.78
47883;BME280;37739;50.350;7.578;2023-05-22T07:01:23;99524.41;;;18.55;81.76
47883;BME280;37739;50.350;7.578;2023-05-22T07:03:48;99530.47;;;18.63;81.07
47883;BME280;37739;50.350;7.578;2023-05-22T07:06:14;99527.00;;;18.63;80.68
47883;BME280;37739;50.350;7.578;2023-05-22T07:08:39;99529.59;;;18.60;80.87
47883;BME280;37739;50.350;7.578;2023-05-22T07:11:05;99532.16;;;18.64;81.30
47883;BME280;37739;50.350;7.578;2023-05-22T07:13:31;99527.84;;;18.60;81.59
47883;BME280;37739;50.350;7.578;2023-05-22T07:15:56;99533.91;;;18.66;81.54
47883;BME280;37739;50.350;7.578;2023-05-22T07:18:24;99531.31;;;18.62;81.48
47883;BME280;37739;50.350;7.578;2023-05-22T07:20:52;99531.28;;;18.53;82.02
47883;BME280;37739;50.350;7.578;2023-05-22T07:23:17;99534.75;;;18.49;81.42
47883;BME280;37739;50.350;7.578;2023-05-22T07:25:43;99537.38;;;18.51;81.50
47883;BME280;37739;50.350;7.578;2023-05-22T07:28:08;99542.59;;;18.55;81.51
47883;BME280;37739;50.350;7.578;2023-05-22T07:30:36;99536.50;;;18.62;81.09
47883;BME280;37739;50.350;7.578;2023-05-22T07:33:05;99540.84;;;18.71;80.76
47883;BME280;37739;50.350;7.578;2023-05-22T07:35:33;99549.53;;;18.81;80.40
47883;BME280;37739;50.350;7.578;2023-05-22T07:38:03;99549.50;;;18.72;80.29
47883;BME280;37739;50.350;7.578;2023-05-22T07:40:29;99546.03;;;18.63;80.79
47883;BME280;37739;50.350;7.578;2023-05-22T07:42:56;99539.97;;;18.69;80.20
47883;BME280;37739;50.350;7.578;2023-05-22T07:45:22;99546.09;;;18.80;79.80
47883;BME280;37739;50.350;7.578;2023-05-22T07:47:47;99542.59;;;18.63;80.67
47883;BME280;37739;50.350;7.578;2023-05-22T07:50:15;99547.78;;;18.78;79.98
47883;BME280;37739;50.350;7.578;2023-05-22T07:52:40;99554.72;;;18.87;80.09
47883;BME280;37739;50.350;7.578;2023-05-22T07:55:08;99548.66;;;18.94;79.00
47883;BME280;37739;50.350;7.578;2023-05-22T07:57:34;99553.00;;;18.86;79.52
47883;BME280;37739;50.350;7.578;2023-05-22T08:00:01;99546.91;;;19.04;78.79
47883;BME280;37739;50.350;7.578;2023-05-22T08:02:33;99549.53;;;19.06;78.45
47883;BME280;37739;50.350;7.578;2023-05-22T08:04:58;99552.97;;;19.14;78.85
47883;BME280;37739;50.350;7.578;2023-05-22T08:07:24;99549.47;;;19.22;77.77
47883;BME280;37739;50.350;7.578;2023-05-22T08:09:49;99550.34;;;19.31;77.89
47883;BME280;37739;50.350;7.578;2023-05-22T08:12:17;99555.47;;;19.49;77.58
47883;BME280;37739;50.350;7.578;2023-05-22T08:14:42;99554.59;;;19.46;77.72
47883;BME280;37739;50.350;7.578;2023-05-22T08:17:08;99552.88;;;19.45;77.27
47883;BME280;37739;50.350;7.578;2023-05-22T08:19:33;99552.84;;;19.58;76.88
47883;BME280;37739;50.350;7.578;2023-05-22T08:21:58;99553.69;;;19.62;76.38
47883;BME280;37739;50.350;7.578;2023-05-22T08:24:24;99556.25;;;19.67;75.94
47883;BME280;37739;50.350;7.578;2023-05-22T08:26:56;99556.28;;;19.65;75.76
47883;BME280;37739;50.350;7.578;2023-05-22T08:29:27;99560.63;;;19.65;76.43
47883;BME280;37739;50.350;7.578;2023-05-22T08:31:57;99551.91;;;19.81;75.71
47883;BME280;37739;50.350;7.578;2023-05-22T08:34:25;99553.56;;;19.99;75.07
47883;BME280;37739;50.350;7.578;2023-05-22T08:36:52;99551.75;;;20.12;74.55
47883;BME280;37739;50.350;7.578;2023-05-22T08:39:17;99541.25;;;20.24;74.78
47883;BME280;37739;50.350;7.578;2023-05-22T08:41:43;99547.34;;;20.22;73.80
47883;BME280;37739;50.350;7.578;2023-05-22T08:44:09;99548.09;;;20.37;73.91
47883;BME280;37739;50.350;7.578;2023-05-22T08:46:38;99547.19;;;20.43;73.46
47883;BME280;37739;50.350;7.578;2023-05-22T08:49:07;99540.25;;;20.44;74.38
47883;BME280;37739;50.350;7.578;2023-05-22T08:51:40;99543.66;;;20.53;73.93
47883;BME280;37739;50.350;7.578;2023-05-22T08:54:07;99542.56;;;20.87;72.55
47883;BME280;37739;50.350;7.578;2023-05-22T08:56:36;99538.03;;;21.03;70.84
47883;BME280;37739;50.350;7.578;2023-05-22T08:59:02;99535.56;;;20.89;71.85
47883;BME280;37739;50.350;7.578;2023-05-22T09:01:30;99535.50;;;20.96;72.11
47883;BME280;37739;50.350;7.578;2023-05-22T09:04:02;99536.94;;;21.27;70.89
47883;BME280;37739;50.350;7.578;2023-05-22T09:06:32;99540.44;;;21.24;70.73
47883;BME280;37739;50.350;7.578;2023-05-22T09:09:04;99544.84;;;21.17;70.84
47883;BME280;37739;50.350;7.578;2023-05-22T09:11:30;99540.25;;;21.43;70.14
47883;BME280;37739;50.350;7.578;2023-05-22T09:14:08;99536.53;;;21.65;69.31
47883;BME280;37739;50.350;7.578;2023-05-22T09:16:48;99537.97;;;21.86;68.36
47883;BME280;37739;50.350;7.578;2023-05-22T09:19:18;99537.72;;;22.05;67.78
47883;BME280;37739;50.350;7.578;2023-05-22T09:21:45;99533.53;;;21.96;67.98
47883;BME280;37739;50.350;7.578;2023-05-22T09:24:17;99535.94;;;22.08;67.77
47883;BME280;37739;50.350;7.578;2023-05-22T09:26:42;99532.13;;;22.32;67.06
47883;BME280;37739;50.350;7.578;2023-05-22T09:29:08;99532.50;;;22.65;66.50
47883;BME280;37739;50.350;7.578;2023-05-22T09:31:45;99539.31;;;22.74;66.05
47883;BME280;37739;50.350;7.578;2023-05-22T09:34:13;99526.00;;;22.86;65.07
47883;BME280;37739;50.350;7.578;2023-05-22T09:36:42;99522.47;;;22.90;65.16
47883;BME280;37739;50.350;7.578;2023-05-22T09:39:07;99525.03;;;22.93;64.86
47883;BME280;37739;50.350;7.578;2023-05-22T09:41:36;99521.53;;;22.94;64.75
47883;BME280;37739;50.350;7.578;2023-05-22T09:44:14;99525.44;;;23.20;64.23
47883;BME280;37739;50.350;7.578;2023-05-22T09:46:41;99526.69;;;22.98;64.50
47883;BME280;37739;50.350;7.578;2023-05-22T09:49:08;99516.66;;;23.23;63.75
47883;BME280;37739;50.350;7.578;2023-05-22T09:51:34;99525.69;;;23.51;63.82
47883;BME280;37739;50.350;7.578;2023-05-22T09:54:02;99519.91;;;23.78;62.76
47883;BME280;37739;50.350;7.578;2023-05-22T09:56:31;99516.97;;;23.95;62.27
47883;BME280;37739;50.350;7.578;2023-05-22T09:58:57;99520.13;;;24.09;61.63
47883;BME280;37739;50.350;7.578;2023-05-22T10:01:28;99519.69;;;24.29;61.46
47883;BME280;37739;50.350;7.578;2023-05-22T10:03:56;99524.81;;;24.34;60.81
47883;BME280;37739;50.350;7.578;2023-05-22T10:06:24;99519.28;;;24.08;60.47
47883;BME280;37739;50.350;7.578;2023-05-22T10:08:58;99521.41;;;24.28;60.96
47883;BME280;37739;50.350;7.578;2023-05-22T10:11:26;99521.56;;;24.22;60.63
47883;BME280;37739;50.350;7.578;2023-05-22T10:13:54;99512.91;;;24.19;60.10
47883;BME280;37739;50.350;7.578;2023-05-22T10:16:20;99517.69;;;24.01;60.11
47883;BME280;37739;50.350;7.578;2023-05-22T10:18:49;99514.03;;;24.08;60.36
47883;BME280;37739;50.350;7.578;2023-05-22T10:21:16;99508.19;;;23.96;60.39
47883;BME280;37739;50.350;7.578;2023-05-22T10:23:42;99505.25;;;24.09;60.58
47883;BME280;37739;50.350;7.578;2023-05-22T10:26:08;99508.09;;;24.38;60.48
47883;BME280;37739;50.350;7.578;2023-05-22T10:28:43;99498.66;;;24.68;59.34
47883;BME280;37739;50.350;7.578;2023-05-22T10:33:55;99500.66;;;24.91;58.34
47883;BME280;37739;50.350;7.578;2023-05-22T10:39:53;99488.31;;;25.89;55.24
47883;BME280;37739;50.350;7.578;2023-05-22T10:42:23;99481.25;;;25.61;56.37
47883;BME280;37739;50.350;7.578;2023-05-22T10:44:55;99488.03;;;25.68;56.39
47883;BME280;37739;50.350;7.578;2023-05-22T10:47:26;99478.91;;;25.80;55.40
47883;BME280;37739;50.350;7.578;2023-05-22T10:50:06;99487.63;;;25.52;55.14
47883;BME280;37739;50.350;7.578;2023-05-22T10:52:37;99483.50;;;25.73;55.72
47883;BME280;37739;50.350;7.578;2023-05-22T10:55:06;99485.28;;;25.71;54.54
47883;BME280;37739;50.350;7.578;2023-05-22T10:57:33;99477.25;;;25.77;55.31
47883;BME280;37739;50.350;7.578;2023-05-22T11:00:06;99481.66;;;26.05;53.34
47883;BME280;37739;50.350;7.578;2023-05-22T11:02:37;99477.84;;;26.15;53.04
47883;BME280;37739;50.350;7.578;2023-05-22T11:07:49;99471.47;;;25.94;54.56
47883;BME280;37739;50.350;7.578;2023-05-22T11:10:26;99471.94;;;26.09;54.19
47883;BME280;37739;50.350;7.578;2023-05-22T11:13:11;99476.94;;;26.43;54.12
47883;BME280;37739;50.350;7.578;2023-05-22T11:15:44;99474.38;;;26.68;53.32
47883;BME280;37739;50.350;7.578;2023-05-22T11:18:12;99473.50;;;26.14;53.37
47883;BME280;37739;50.350;7.578;2023-05-22T11:20:43;99479.66;;;26.13;53.47
47883;BME280;37739;50.350;7.578;2023-05-22T11:23:10;99470.16;;;26.36;53.22
47883;BME280;37739;50.350;7.578;2023-05-22T11:25:39;99468.81;;;26.51;52.99
47883;BME280;37739;50.350;7.578;2023-05-22T11:28:07;99464.88;;;26.37;52.85
47883;BME280;37739;50.350;7.578;2023-05-22T11:30:34;99466.63;;;26.89;52.59
47883;BME280;37739;50.350;7.578;2023-05-22T11:33:03;99456.81;;;27.17;51.59
47883;BME280;37739;50.350;7.578;2023-05-22T11:35:31;99457.28;;;27.30;49.51
47883;BME280;37739;50.350;7.578;2023-05-22T11:38:03;99462.88;;;27.19;49.98
47883;BME280;37739;50.350;7.578;2023-05-22T11:40:29;99450.59;;;27.20;50.26
47883;BME280;37739;50.350;7.578;2023-05-22T11:42:56;99440.88;;;27.46;49.65
47883;BME280;37739;50.350;7.578;2023-05-22T11:45:27;99451.38;;;27.69;49.37
47883;BME280;37739;50.350;7.578;2023-05-22T11:47:58;99431.09;;;27.71;49.08
47883;BME280;37739;50.350;7.578;2023-05-22T11:50:23;99432.88;;;27.49;48.79
47883;BME280;37739;50.350;7.578;2023-05-22T11:52:48;99429.59;;;27.88;48.61
47883;BME280;37739;50.350;7.578;2023-05-22T11:55:16;99426.94;;;27.89;48.93
47883;BME280;37739;50.350;7.578;2023-05-22T11:57:42;99426.53;;;27.76;47.75
47883;BME280;37739;50.350;7.578;2023-05-22T12:00:08;99428.47;;;27.49;49.02
47883;BME280;37739;50.350;7.578;2023-05-22T12:02:34;99419.94;;;27.88;47.94
47883;BME280;37739;50.350;7.578;2023-05-22T12:04:59;99414.34;;;28.18;48.69
47883;BME280;37739;50.350;7.578;2023-05-22T12:07:28;99416.91;;;27.75;49.01
47883;BME280;37739;50.350;7.578;2023-05-22T12:09:56;99425.13;;;27.68;49.70
47883;BME280;37739;50.350;7.578;2023-05-22T12:12:22;99421.06;;;27.59;49.27
47883;BME280;37739;50.350;7.578;2023-05-22T12:14:50;99423.81;;;27.56;49.66
47883;BME280;37739;50.350;7.578;2023-05-22T12:17:18;99420.03;;;28.07;48.99
47883;BME280;37739;50.350;7.578;2023-05-22T12:19:46;99417.38;;;28.50;48.87
47883;BME280;37739;50.350;7.578;2023-05-22T12:22:13;99422.56;;;28.53;48.06
47883;BME280;37739;50.350;7.578;2023-05-22T12:24:40;99422.34;;;28.37;46.69
47883;BME280;37739;50.350;7.578;2023-05-22T12:27:11;99423.56;;;27.84;47.96
47883;BME280;37739;50.350;7.578;2023-05-22T12:29:41;99417.97;;;27.93;47.42
47883;BME280;37739;50.350;7.578;2023-05-22T12:32:11;99410.22;;;28.11;46.42
47883;BME280;37739;50.350;7.578;2023-05-22T12:34:43;99415.69;;;28.49;46.80
47883;BME280;37739;50.350;7.578;2023-05-22T12:37:18;99414.53;;;28.95;45.18
47883;BME280;37739;50.350;7.578;2023-05-22T12:39:58;99410.09;;;28.56;45.06
47883;BME280;37739;50.350;7.578;2023-05-22T12:42:25;99417.50;;;28.26;45.82
47883;BME280;37739;50.350;7.578;2023-05-22T12:44:55;99414.97;;;28.23;45.47
47883;BME280;37739;50.350;7.578;2023-05-22T12:47:21;99417.06;;;28.37;45.89
47883;BME280;37739;50.350;7.578;2023-05-22T12:49:47;99413.13;;;28.25;45.17
47883;BME280;37739;50.350;7.578;2023-05-22T12:52:15;99412.81;;;28.12;45.96
47883;BME280;37739;50.350;7.578;2023-05-22T12:54:42;99412.53;;;28.18;44.84
47883;BME280;37739;50.350;7.578;2023-05-22T12:57:08;99420.19;;;28.25;45.26
47883;BME280;37739;50.350;7.578;2023-05-22T12:59:33;99408.38;;;28.76;45.21
47883;BME280;37739;50.350;7.578;2023-05-22T13:02:00;99411.69;;;29.00;45.72
47883;BME280;37739;50.350;7.578;2023-05-22T13:04:27;99406.03;;;28.89;45.17
47883;BME280;37739;50.350;7.578;2023-05-22T13:06:55;99411.34;;;29.08;44.16
47883;BME280;37739;50.350;7.578;2023-05-22T13:09:23;99408.56;;;29.11;44.72
47883;BME280;37739;50.350;7.578;2023-05-22T13:11:48;99415.47;;;29.53;43.89
47883;BME280;37739;50.350;7.578;2023-05-22T13:14:14;99410.16;;;29.53;44.26
47883;BME280;37739;50.350;7.578;2023-05-22T13:16:43;99424.22;;;29.15;44.37
47883;BME280;37739;50.350;7.578;2023-05-22T13:19:10;99430.59;;;28.70;45.06
47883;BME280;37739;50.350;7.578;2023-05-22T13:21:38;99422.59;;;29.51;44.46
47883;BME280;37739;50.350;7.578;2023-05-22T13:24:03;99428.72;;;29.32;45.32
47883;BME280;37739;50.350;7.578;2023-05-22T13:26:29;99438.28;;;29.35;44.80